createdAt,value
2017-04-16T00:00:11.385Z,7.12
2017-04-16T00:01:09.645Z,6.67
2017-04-16T00:02:07.886Z,8.35
2017-04-16T00:03:06.149Z,6.83
2017-04-16T00:04:04.409Z,8.62
2017-04-16T00:05:02.701Z,6.78
2017-04-16T00:06:00.961Z,8.13
2017-04-16T00:06:59.220Z,6.77
2017-04-16T00:07:57.510Z,10.32
2017-04-16T00:08:55.797Z,6.85
2017-04-16T00:09:54.064Z,6.77
2017-04-16T00:10:52.301Z,9.15
2017-04-16T00:11:50.569Z,8.80
2017-04-16T00:12:48.826Z,7.83
2017-04-16T00:13:47.054Z,9.65
2017-04-16T00:14:45.316Z,6.53
2017-04-16T00:15:44.370Z,7.10
2017-04-16T00:16:42.678Z,8.02
2017-04-16T00:17:40.955Z,6.65
2017-04-16T00:18:39.233Z,10.10
2017-04-16T00:19:37.501Z,11.52
2017-04-16T00:20:35.727Z,10.33
2017-04-16T00:21:33.988Z,7.03
2017-04-16T00:22:32.244Z,8.22
2017-04-16T00:23:30.532Z,10.67
2017-04-16T00:24:29.515Z,7.83
2017-04-16T00:25:27.781Z,7.67
2017-04-16T00:26:26.048Z,9.55
2017-04-16T00:27:24.329Z,7.02
2017-04-16T00:28:22.587Z,13.80
2017-04-16T00:29:20.843Z,8.95
2017-04-16T00:30:19.077Z,11.03
2017-04-16T00:31:17.349Z,11.37
2017-04-16T00:32:15.610Z,9.43
2017-04-16T00:33:13.904Z,8.60
2017-04-16T00:34:12.146Z,8.58
2017-04-16T00:35:10.415Z,11.20
2017-04-16T00:36:08.679Z,9.02
2017-04-16T00:37:06.930Z,9.18
2017-04-16T00:38:05.238Z,8.75
2017-04-16T00:39:04.385Z,9.78
2017-04-16T00:40:02.619Z,10.83
2017-04-16T00:41:01.614Z,12.55
2017-04-16T00:41:59.917Z,8.65
2017-04-16T00:42:58.170Z,12.27
2017-04-16T00:43:56.397Z,10.00
2017-04-16T00:44:54.649Z,10.27
2017-04-16T00:45:52.921Z,8.95
2017-04-16T00:46:51.982Z,10.70
2017-04-16T00:47:50.280Z,9.42
2017-04-16T00:48:48.512Z,8.70
2017-04-16T00:49:46.753Z,14.13
2017-04-16T00:50:45.246Z,10.32
2017-04-16T00:51:43.462Z,11.17
2017-04-16T00:52:41.714Z,12.92
2017-04-16T00:53:39.936Z,10.72
2017-04-16T00:54:38.920Z,9.93
2017-04-16T00:55:37.174Z,9.40
2017-04-16T00:56:35.433Z,9.40
2017-04-16T00:57:33.691Z,9.55
2017-04-16T00:58:31.962Z,8.10
2017-04-16T00:59:30.241Z,9.62
2017-04-16T01:00:33.852Z,12.73
2017-04-16T01:01:37.686Z,10.57
2017-04-16T01:02:43.652Z,11.02
2017-04-16T01:03:41.933Z,10.28
2017-04-16T01:04:40.191Z,10.68
2017-04-16T01:05:38.488Z,8.97
2017-04-16T01:06:36.764Z,8.82
2017-04-16T01:07:35.098Z,7.83
2017-04-16T01:08:33.423Z,8.35
2017-04-16T01:09:31.757Z,7.40
2017-04-16T01:10:30.057Z,8.17
2017-04-16T01:11:28.426Z,8.40
2017-04-16T01:12:26.762Z,8.23
2017-04-16T01:13:25.063Z,6.67
2017-04-16T01:14:23.318Z,10.13
2017-04-16T01:15:22.037Z,7.52
2017-04-16T01:16:20.382Z,8.62
2017-04-16T01:17:18.666Z,8.43
2017-04-16T01:18:16.938Z,8.53
2017-04-16T01:19:15.241Z,6.93
2017-04-16T01:20:13.509Z,7.97
2017-04-16T01:21:11.757Z,8.93
2017-04-16T01:22:10.812Z,8.15
2017-04-16T01:23:09.077Z,7.93
2017-04-16T01:24:07.354Z,7.27
2017-04-16T01:25:05.694Z,6.93
2017-04-16T01:26:04.021Z,9.28
2017-04-16T01:27:02.316Z,7.05
2017-04-16T01:28:00.588Z,8.42
2017-04-16T01:28:58.921Z,7.07
2017-04-16T01:29:57.192Z,8.42
2017-04-16T01:30:56.237Z,10.40
2017-04-16T01:31:53.786Z,11.45
2017-04-16T01:32:52.052Z,12.87
2017-04-16T01:33:51.071Z,10.85
2017-04-16T01:34:49.337Z,10.27
2017-04-16T01:35:47.597Z,9.22
2017-04-16T01:36:45.916Z,11.72
2017-04-16T01:37:44.209Z,8.98
2017-04-16T01:38:42.492Z,10.22
2017-04-16T01:39:40.768Z,10.07
2017-04-16T01:40:39.504Z,7.90
2017-04-16T01:41:37.796Z,9.70
2017-04-16T01:42:36.857Z,7.72
2017-04-16T01:43:35.366Z,7.97
2017-04-16T01:44:33.633Z,10.25
2017-04-16T01:45:31.952Z,8.82
2017-04-16T01:46:30.251Z,8.85
2017-04-16T01:47:28.562Z,7.90
2017-04-16T01:48:26.887Z,7.90
2017-04-16T01:49:25.159Z,12.58
2017-04-16T01:50:23.427Z,7.57
2017-04-16T01:51:21.701Z,8.45
2017-04-16T01:52:20.026Z,8.63
2017-04-16T01:53:18.278Z,9.95
2017-04-16T01:54:16.627Z,7.98
2017-04-16T01:55:14.928Z,7.52
2017-04-16T01:56:13.221Z,9.87
2017-04-16T01:57:11.497Z,8.92
2017-04-16T01:58:09.753Z,9.18
2017-04-16T01:59:08.073Z,9.40
2017-04-16T02:00:06.389Z,11.13
2017-04-16T02:01:04.665Z,10.13
2017-04-16T02:02:03.012Z,7.75
2017-04-16T02:03:01.286Z,15.60
2017-04-16T02:03:59.561Z,9.55
2017-04-16T02:04:57.907Z,9.05
2017-04-16T02:05:56.187Z,12.28
2017-04-16T02:06:55.231Z,7.68
2017-04-16T02:07:53.569Z,9.33
2017-04-16T02:08:51.868Z,9.68
2017-04-16T02:09:50.176Z,7.92
2017-04-16T02:10:48.448Z,7.83
2017-04-16T02:11:46.729Z,8.87
2017-04-16T02:12:44.996Z,10.78
2017-04-16T02:13:43.328Z,8.87
2017-04-16T02:14:41.638Z,9.90
2017-04-16T02:15:39.941Z,8.08
2017-04-16T02:16:38.233Z,11.62
2017-04-16T02:17:37.323Z,7.75
2017-04-16T02:18:35.613Z,9.33
2017-04-16T02:19:34.067Z,7.98
2017-04-16T02:20:32.332Z,8.43
2017-04-16T02:21:30.649Z,8.57
2017-04-16T02:22:28.942Z,9.02
2017-04-16T02:23:27.254Z,10.27
2017-04-16T02:24:25.576Z,7.37
2017-04-16T02:25:23.901Z,9.58
2017-04-16T02:26:22.137Z,8.32
2017-04-16T02:27:20.457Z,10.82
2017-04-16T02:28:18.753Z,9.53
2017-04-16T02:29:17.486Z,8.85
2017-04-16T02:30:15.769Z,8.83
2017-04-16T02:31:14.032Z,11.52
2017-04-16T02:32:12.327Z,10.47
2017-04-16T02:33:11.353Z,12.10
2017-04-16T02:34:09.678Z,12.22
2017-04-16T02:35:08.198Z,10.52
2017-04-16T02:36:06.478Z,10.10
2017-04-16T02:37:04.785Z,8.53
2017-04-16T02:38:03.076Z,9.88
2017-04-16T02:39:01.421Z,9.42
2017-04-16T02:39:59.712Z,10.07
2017-04-16T02:40:58.037Z,12.50
2017-04-16T02:41:57.046Z,13.95
2017-04-16T02:42:55.358Z,11.33
2017-04-16T02:43:53.659Z,9.28
2017-04-16T02:44:51.966Z,9.45
2017-04-16T02:45:50.261Z,9.33
2017-04-16T02:46:48.589Z,9.23
2017-04-16T02:47:46.854Z,12.18
2017-04-16T02:48:45.205Z,8.72
2017-04-16T02:49:43.493Z,11.00
2017-04-16T02:50:41.769Z,12.87
2017-04-16T02:51:40.052Z,10.08
2017-04-16T02:52:38.390Z,9.55
2017-04-16T02:53:36.665Z,10.15
2017-04-16T02:54:34.948Z,9.60
2017-04-16T02:55:33.229Z,10.70
2017-04-16T02:56:31.517Z,9.52
2017-04-16T02:57:30.537Z,9.65
2017-04-16T02:58:28.812Z,11.95
2017-04-16T02:59:27.089Z,13.00
2017-04-16T03:00:25.377Z,9.17
2017-04-16T03:01:23.665Z,10.10
2017-04-16T03:02:21.950Z,12.12
2017-04-16T03:03:20.256Z,9.32
2017-04-16T03:04:18.529Z,9.75
2017-04-16T03:05:16.834Z,18.95
2017-04-16T03:06:15.121Z,10.02
2017-04-16T03:07:13.401Z,9.88
2017-04-16T03:08:11.713Z,12.98
2017-04-16T03:09:10.001Z,10.88
2017-04-16T03:10:08.302Z,14.03
2017-04-16T03:11:06.601Z,10.53
2017-04-16T03:12:04.869Z,9.55
2017-04-16T03:13:03.209Z,9.42
2017-04-16T03:14:01.509Z,10.32
2017-04-16T03:14:59.797Z,9.55
2017-04-16T03:15:58.077Z,14.08
2017-04-16T03:16:56.365Z,11.02
2017-04-16T03:17:54.665Z,11.28
2017-04-16T03:18:52.959Z,10.52
2017-04-16T03:19:51.231Z,10.20
2017-04-16T03:20:49.503Z,10.65
2017-04-16T03:21:47.789Z,10.43
2017-04-16T03:22:46.069Z,10.45
2017-04-16T03:23:44.369Z,11.27
2017-04-16T03:24:43.372Z,11.40
2017-04-16T03:25:42.464Z,10.17
2017-04-16T03:26:40.730Z,11.05
2017-04-16T03:27:39.010Z,11.43
2017-04-16T03:28:37.285Z,10.75
2017-04-16T03:29:35.570Z,14.97
2017-04-16T03:30:33.869Z,11.58
2017-04-16T03:31:32.173Z,10.73
2017-04-16T03:32:30.760Z,10.77
2017-04-16T03:33:29.081Z,11.72
2017-04-16T03:34:27.366Z,12.03
2017-04-16T03:35:25.642Z,11.38
2017-04-16T03:36:23.913Z,12.27
2017-04-16T03:37:22.225Z,11.42
2017-04-16T03:38:20.530Z,15.28
2017-04-16T03:39:18.829Z,12.50
2017-04-16T03:40:17.101Z,11.88
2017-04-16T03:41:15.393Z,11.22
2017-04-16T03:42:13.665Z,11.35
2017-04-16T03:43:13.134Z,13.40
2017-04-16T03:44:11.433Z,11.43
2017-04-16T03:45:09.751Z,11.97
2017-04-16T03:46:08.099Z,13.43
2017-04-16T03:47:06.389Z,12.82
2017-04-16T03:48:04.665Z,14.55
2017-04-16T03:49:02.949Z,13.50
2017-04-16T03:50:01.222Z,14.30
2017-04-16T03:50:59.521Z,13.25
2017-04-16T03:51:58.521Z,17.25
2017-04-16T03:52:56.813Z,14.05
2017-04-16T03:53:55.069Z,13.67
2017-04-16T03:54:53.342Z,12.85
2017-04-16T03:55:52.563Z,12.38
2017-04-16T03:56:50.837Z,14.65
2017-04-16T03:57:49.123Z,11.60
2017-04-16T03:58:47.405Z,13.32
2017-04-16T03:59:45.656Z,15.17
2017-04-16T04:00:43.964Z,13.22
2017-04-16T04:01:42.965Z,13.98
2017-04-16T04:02:42.066Z,19.43
2017-04-16T04:03:39.589Z,14.67
2017-04-16T04:04:37.891Z,13.80
2017-04-16T04:05:36.137Z,12.85
2017-04-16T04:06:34.404Z,16.23
2017-04-16T04:07:32.677Z,16.27
2017-04-16T04:08:30.973Z,16.68
2017-04-16T04:09:29.217Z,14.58
2017-04-16T04:10:27.501Z,16.48
2017-04-16T04:11:25.774Z,13.70
2017-04-16T04:12:24.022Z,13.42
2017-04-16T04:13:23.014Z,13.90
2017-04-16T04:14:23.049Z,14.15
2017-04-16T04:15:21.321Z,16.53
2017-04-16T04:16:19.589Z,14.12
2017-04-16T04:17:17.849Z,14.23
2017-04-16T04:18:16.093Z,14.55
2017-04-16T04:19:14.345Z,17.33
2017-04-16T04:20:12.650Z,14.42
2017-04-16T04:21:10.892Z,14.85
2017-04-16T04:22:09.113Z,16.18
2017-04-16T04:23:07.373Z,12.22
2017-04-16T04:24:05.674Z,13.32
2017-04-16T04:25:03.944Z,14.00
2017-04-16T04:26:02.358Z,19.47
2017-04-16T04:27:00.621Z,22.32
2017-04-16T04:27:58.922Z,14.07
2017-04-16T04:28:57.217Z,14.38
2017-04-16T04:29:55.474Z,13.47
2017-04-16T04:30:53.800Z,17.07
2017-04-16T04:31:52.109Z,14.77
2017-04-16T04:32:50.357Z,15.30
2017-04-16T04:33:49.361Z,13.75
2017-04-16T04:34:47.650Z,13.85
2017-04-16T04:35:45.937Z,13.88
2017-04-16T04:36:44.193Z,13.97
2017-04-16T04:37:42.515Z,14.52
2017-04-16T04:38:40.773Z,15.90
2017-04-16T04:39:38.984Z,12.92
2017-04-16T04:40:37.222Z,13.57
2017-04-16T04:41:35.520Z,15.32
2017-04-16T04:42:33.758Z,12.93
2017-04-16T04:43:32.064Z,17.78
2017-04-16T04:44:30.289Z,13.65
2017-04-16T04:45:28.565Z,13.55
2017-04-16T04:46:26.797Z,15.00
2017-04-16T04:47:25.069Z,16.35
2017-04-16T04:48:23.350Z,13.57
2017-04-16T04:49:21.727Z,13.10
2017-04-16T04:50:19.968Z,15.30
2017-04-16T04:51:18.221Z,13.12
2017-04-16T04:52:16.469Z,14.93
2017-04-16T04:53:14.772Z,13.28
2017-04-16T04:54:13.011Z,13.63
2017-04-16T04:55:11.273Z,14.05
2017-04-16T04:56:10.279Z,13.93
2017-04-16T04:57:08.520Z,13.52
2017-04-16T04:58:06.760Z,12.97
2017-04-16T04:59:04.989Z,16.07
2017-04-16T05:00:03.245Z,14.07
2017-04-16T05:01:02.241Z,13.25
2017-04-16T05:02:00.510Z,15.18
2017-04-16T05:02:58.772Z,13.92
2017-04-16T05:03:57.066Z,13.87
2017-04-16T05:04:55.339Z,13.62
2017-04-16T05:05:53.588Z,15.65
2017-04-16T05:06:51.853Z,16.97
2017-04-16T05:07:50.434Z,16.62
2017-04-16T05:08:48.673Z,14.78
2017-04-16T05:09:47.657Z,14.98
2017-04-16T05:10:45.946Z,13.60
2017-04-16T05:11:44.233Z,19.53
2017-04-16T05:12:42.509Z,12.05
2017-04-16T05:13:40.846Z,17.83
2017-04-16T05:14:39.114Z,12.85
2017-04-16T05:15:37.356Z,15.38
2017-04-16T05:16:35.618Z,18.97
2017-04-16T05:17:33.874Z,12.77
2017-04-16T05:18:32.877Z,14.82
2017-04-16T05:19:31.138Z,16.82
2017-04-16T05:20:29.398Z,13.03
2017-04-16T05:21:27.667Z,16.05
2017-04-16T05:22:25.910Z,13.92
2017-04-16T05:23:24.161Z,13.38
2017-04-16T05:24:22.441Z,13.08
2017-04-16T05:25:21.790Z,19.72
2017-04-16T05:26:20.104Z,13.20
2017-04-16T05:27:19.937Z,17.17
2017-04-16T05:28:18.316Z,13.50
2017-04-16T05:29:17.382Z,13.53
2017-04-16T05:30:15.801Z,13.10
2017-04-16T05:31:14.152Z,16.45
2017-04-16T05:32:12.539Z,12.92
2017-04-16T05:33:10.915Z,15.43
2017-04-16T05:34:09.306Z,15.83
2017-04-16T05:35:07.729Z,12.82
2017-04-16T05:36:07.013Z,16.77
2017-04-16T05:37:05.390Z,12.58
2017-04-16T05:38:03.801Z,14.48
2017-04-16T05:39:02.214Z,13.35
2017-04-16T05:40:00.653Z,15.32
2017-04-16T05:40:59.045Z,14.42
2017-04-16T05:41:57.353Z,14.15
2017-04-16T05:42:55.654Z,13.85
2017-04-16T05:43:53.949Z,16.03
2017-04-16T05:44:52.213Z,12.68
2017-04-16T05:45:50.484Z,13.32
2017-04-16T05:46:48.803Z,14.83
2017-04-16T05:47:47.187Z,13.87
2017-04-16T05:48:45.560Z,16.05
2017-04-16T05:49:43.907Z,16.75
2017-04-16T05:50:42.852Z,11.98
2017-04-16T05:51:41.506Z,13.93
2017-04-16T05:52:39.794Z,13.42
2017-04-16T05:53:38.098Z,12.03
2017-04-16T05:54:37.095Z,13.15
2017-04-16T05:55:35.417Z,12.50
2017-04-16T05:56:33.693Z,13.18
2017-04-16T05:57:31.980Z,14.42
2017-04-16T05:58:30.625Z,12.23
2017-04-16T05:59:28.920Z,13.12
2017-04-16T06:00:27.946Z,11.87
2017-04-16T06:01:26.201Z,11.18
2017-04-16T06:02:28.004Z,14.65
2017-04-16T06:03:26.601Z,11.85
2017-04-16T06:04:26.943Z,11.78
2017-04-16T06:05:26.107Z,11.10
2017-04-16T06:06:24.410Z,12.42
2017-04-16T06:07:22.733Z,12.98
2017-04-16T06:08:21.002Z,10.68
2017-04-16T06:09:19.263Z,11.10
2017-04-16T06:10:18.302Z,10.10
2017-04-16T06:11:16.625Z,11.42
2017-04-16T06:12:14.975Z,15.13
2017-04-16T06:13:13.959Z,11.40
2017-04-16T06:14:12.685Z,10.07
2017-04-16T06:15:11.231Z,9.55
2017-04-16T06:16:10.360Z,11.13
2017-04-16T06:17:09.064Z,12.23
2017-04-16T06:18:13.776Z,11.28
2017-04-16T06:19:12.062Z,12.33
2017-04-16T06:20:10.397Z,13.70
2017-04-16T06:21:08.824Z,12.52
2017-04-16T06:22:07.102Z,10.52
2017-04-16T06:23:05.402Z,12.35
2017-04-16T06:24:03.693Z,13.62
2017-04-16T06:25:02.051Z,11.32
2017-04-16T06:26:01.053Z,10.50
2017-04-16T06:26:59.341Z,10.50
2017-04-16T06:27:57.613Z,9.83
2017-04-16T06:28:56.001Z,11.40
2017-04-16T06:29:54.257Z,11.12
2017-04-16T06:30:52.506Z,10.93
2017-04-16T06:31:50.813Z,12.97
2017-04-16T06:32:49.065Z,11.00
2017-04-16T06:33:47.345Z,10.60
2017-04-16T06:34:45.649Z,14.35
2017-04-16T06:35:43.898Z,12.73
2017-04-16T06:36:42.181Z,11.32
2017-04-16T06:37:40.542Z,12.55
2017-04-16T06:38:38.838Z,12.63
2017-04-16T06:39:37.078Z,10.23
2017-04-16T06:40:35.333Z,10.47
2017-04-16T06:41:33.598Z,11.08
2017-04-16T06:42:31.866Z,11.63
2017-04-16T06:43:30.109Z,13.85
2017-04-16T06:44:28.399Z,9.90
2017-04-16T06:45:27.397Z,13.85
2017-04-16T06:46:25.680Z,10.25
2017-04-16T06:47:24.003Z,9.95
2017-04-16T06:48:22.248Z,12.97
2017-04-16T06:49:20.535Z,14.83
2017-04-16T06:50:18.804Z,10.20
2017-04-16T06:51:18.134Z,12.75
2017-04-16T06:52:17.157Z,12.05
2017-04-16T06:53:15.378Z,10.18
2017-04-16T06:54:13.637Z,9.67
2017-04-16T06:55:11.892Z,10.90
2017-04-16T06:56:10.166Z,9.22
2017-04-16T06:57:08.421Z,9.43
2017-04-16T06:58:06.685Z,9.50
2017-04-16T06:59:04.978Z,12.43
2017-04-16T07:00:03.288Z,11.15
2017-04-16T07:01:02.308Z,11.32
2017-04-16T07:02:00.596Z,10.35
2017-04-16T07:02:59.582Z,13.18
2017-04-16T07:03:59.489Z,9.38
2017-04-16T07:04:58.457Z,12.22
2017-04-16T07:05:57.462Z,12.50
2017-04-16T07:06:56.330Z,11.73
2017-04-16T07:07:55.747Z,8.50
2017-04-16T07:08:54.061Z,11.18
2017-04-16T07:09:52.914Z,9.52
2017-04-16T07:10:52.442Z,9.05
2017-04-16T07:11:50.904Z,11.40
2017-04-16T07:12:49.411Z,11.03
2017-04-16T07:13:48.136Z,8.72
2017-04-16T07:14:46.810Z,11.48
2017-04-16T07:15:45.939Z,9.60
2017-04-16T07:16:44.386Z,10.15
2017-04-16T07:17:42.910Z,8.87
2017-04-16T07:18:42.024Z,9.32
2017-04-16T07:19:40.349Z,10.38
2017-04-16T07:20:38.651Z,9.12
2017-04-16T07:21:37.759Z,11.08
2017-04-16T07:22:36.079Z,9.90
2017-04-16T07:23:35.166Z,9.72
2017-04-16T07:24:33.564Z,14.20
2017-04-16T07:25:31.898Z,11.40
2017-04-16T07:26:30.231Z,9.97
2017-04-16T07:27:28.702Z,8.82
2017-04-16T07:28:27.040Z,9.90
2017-04-16T07:29:25.403Z,12.72
2017-04-16T07:30:23.718Z,9.57
2017-04-16T07:31:22.022Z,14.85
2017-04-16T07:32:20.339Z,8.98
2017-04-16T07:33:18.686Z,12.45
2017-04-16T07:34:16.986Z,8.33
2017-04-16T07:35:15.558Z,9.37
2017-04-16T07:36:13.865Z,8.48
2017-04-16T07:37:12.234Z,13.43
2017-04-16T07:38:10.805Z,9.88
2017-04-16T07:39:09.206Z,10.42
2017-04-16T07:40:07.661Z,9.55
2017-04-16T07:41:06.235Z,13.18
2017-04-16T07:42:04.954Z,11.03
2017-04-16T07:43:03.700Z,8.43
2017-04-16T07:44:02.232Z,8.78
2017-04-16T07:45:00.594Z,10.13
2017-04-16T07:45:58.980Z,8.43
2017-04-16T07:46:57.619Z,10.75
2017-04-16T07:47:55.953Z,9.22
2017-04-16T07:48:54.265Z,9.65
2017-04-16T07:49:53.084Z,10.15
2017-04-16T07:50:51.566Z,9.22
2017-04-16T07:51:49.985Z,10.83
2017-04-16T07:52:49.027Z,9.65
2017-04-16T07:53:47.330Z,11.87
2017-04-16T07:54:45.725Z,9.60
2017-04-16T07:55:44.008Z,11.63
2017-04-16T07:56:42.322Z,9.92
2017-04-16T07:57:40.585Z,11.10
2017-04-16T07:58:38.882Z,9.38
2017-04-16T07:59:37.205Z,9.00
2017-04-16T08:00:35.545Z,10.02
2017-04-16T08:01:33.846Z,8.60
2017-04-16T08:02:32.263Z,10.47
2017-04-16T08:03:30.736Z,11.65
2017-04-16T08:04:32.210Z,8.83
2017-04-16T08:05:30.702Z,8.18
2017-04-16T08:06:29.143Z,9.15
2017-04-16T08:07:28.753Z,9.05
2017-04-16T08:08:27.049Z,10.73
2017-04-16T08:09:25.533Z,11.23
2017-04-16T08:10:23.886Z,9.95
2017-04-16T08:11:22.852Z,8.58
2017-04-16T08:12:21.357Z,8.23
2017-04-16T08:13:19.758Z,8.92
2017-04-16T08:14:18.123Z,10.67
2017-04-16T08:15:16.397Z,8.92
2017-04-16T08:16:14.671Z,9.77
2017-04-16T08:17:12.960Z,9.18
2017-04-16T08:18:11.350Z,10.32
2017-04-16T08:19:09.677Z,9.62
2017-04-16T08:20:08.740Z,11.42
2017-04-16T08:21:07.017Z,8.95
2017-04-16T08:22:05.418Z,7.60
2017-04-16T08:23:03.666Z,10.25
2017-04-16T08:24:02.355Z,10.20
2017-04-16T08:25:00.710Z,8.27
2017-04-16T08:25:59.080Z,8.97
2017-04-16T08:26:58.730Z,9.20
2017-04-16T08:28:06.481Z,12.10
2017-04-16T08:29:20.808Z,9.23
2017-04-16T08:30:20.457Z,9.45
2017-04-16T08:31:18.874Z,9.05
2017-04-16T08:32:17.215Z,10.17
2017-04-16T08:33:15.596Z,8.65
2017-04-16T08:34:13.869Z,7.12
2017-04-16T08:35:12.138Z,8.40
2017-04-16T08:36:10.399Z,8.68
2017-04-16T08:37:08.714Z,13.33
2017-04-16T08:38:06.953Z,12.02
2017-04-16T08:39:05.298Z,9.75
2017-04-16T08:40:03.570Z,11.37
2017-04-16T08:41:01.830Z,9.60
2017-04-16T08:42:00.129Z,12.30
2017-04-16T08:42:58.425Z,10.07
2017-04-16T08:43:58.681Z,13.82
2017-04-16T08:44:57.028Z,17.57
2017-04-16T08:45:55.329Z,8.17
2017-04-16T08:46:53.841Z,7.38
2017-04-16T08:47:53.793Z,11.73
2017-04-16T08:48:56.214Z,12.53
2017-04-16T08:50:00.978Z,7.65
2017-04-16T08:50:59.305Z,7.12
2017-04-16T08:51:57.577Z,9.48
2017-04-16T08:52:57.656Z,6.90
2017-04-16T08:53:55.952Z,9.23
2017-04-16T08:54:55.362Z,6.33
2017-04-16T08:55:53.797Z,9.88
2017-04-16T08:56:52.164Z,7.98
2017-04-16T08:57:50.460Z,8.85
2017-04-16T08:58:49.481Z,11.03
2017-04-16T08:59:47.866Z,12.23
2017-04-16T09:00:46.832Z,5.80
2017-04-16T09:02:21.978Z,7.52
2017-04-16T09:03:20.240Z,7.72
2017-04-16T09:04:18.465Z,7.33
2017-04-16T09:05:16.733Z,7.38
2017-04-16T09:06:14.988Z,6.07
2017-04-16T09:07:14.385Z,10.25
2017-04-16T09:08:12.609Z,7.23
2017-04-16T09:09:10.863Z,7.23
2017-04-16T09:10:09.099Z,6.93
2017-04-16T09:11:07.374Z,9.50
2017-04-16T09:12:05.609Z,8.78
2017-04-16T09:13:03.863Z,6.43
2017-04-16T09:14:02.089Z,8.12
2017-04-16T09:15:01.123Z,9.35
2017-04-16T09:15:59.353Z,6.10
2017-04-16T09:16:57.601Z,10.45
2017-04-16T09:17:55.823Z,6.75
2017-04-16T09:18:54.074Z,6.97
2017-04-16T09:19:53.325Z,8.53
2017-04-16T09:20:51.567Z,8.62
2017-04-16T09:21:49.806Z,7.93
2017-04-16T09:22:48.093Z,6.67
2017-04-16T09:23:46.310Z,8.27
2017-04-16T09:24:44.553Z,9.03
2017-04-16T09:25:42.792Z,6.47
2017-04-16T09:26:41.131Z,6.95
2017-04-16T09:27:39.382Z,6.17
2017-04-16T09:28:37.621Z,11.57
2017-04-16T09:29:35.851Z,9.22
2017-04-16T09:30:34.093Z,10.73
2017-04-16T09:31:32.386Z,8.07
2017-04-16T09:32:30.645Z,9.12
2017-04-16T09:33:28.913Z,8.97
2017-04-16T09:34:27.170Z,8.97
2017-04-16T09:35:25.387Z,8.07
2017-04-16T09:36:23.632Z,6.38
2017-04-16T09:37:21.854Z,5.50
2017-04-16T09:38:20.130Z,6.23
2017-04-16T09:39:18.390Z,6.62
2017-04-16T09:40:16.646Z,6.22
2017-04-16T09:41:14.912Z,7.78
2017-04-16T09:42:13.163Z,5.95
2017-04-16T09:43:12.357Z,11.83
2017-04-16T09:44:12.358Z,7.70
2017-04-16T09:45:11.578Z,8.38
2017-04-16T09:46:10.367Z,8.40
2017-04-16T09:47:08.825Z,5.98
2017-04-16T09:48:07.229Z,11.60
2017-04-16T09:49:05.563Z,6.53
2017-04-16T09:50:03.913Z,7.45
2017-04-16T09:51:02.186Z,8.30
2017-04-16T09:52:00.435Z,7.25
2017-04-16T09:52:58.769Z,7.23
2017-04-16T09:53:57.178Z,9.33
2017-04-16T09:54:55.405Z,7.03
2017-04-16T09:55:53.673Z,6.28
2017-04-16T09:56:51.988Z,5.37
2017-04-16T09:57:50.229Z,5.87
2017-04-16T09:58:48.539Z,5.32
2017-04-16T09:59:46.769Z,5.48
2017-04-16T10:00:45.749Z,5.75
2017-04-16T10:01:44.028Z,6.55
2017-04-16T10:02:42.353Z,5.33
2017-04-16T10:03:40.630Z,6.30
2017-04-16T10:04:38.881Z,5.00
2017-04-16T10:05:37.152Z,8.33
2017-04-16T10:06:35.511Z,5.50
2017-04-16T10:07:33.827Z,6.25
2017-04-16T10:08:32.168Z,5.37
2017-04-16T10:09:30.412Z,6.32
2017-04-16T10:10:28.704Z,15.22
2017-04-16T10:11:27.023Z,6.97
2017-04-16T10:12:25.249Z,5.92
2017-04-16T10:13:23.753Z,6.00
2017-04-16T10:14:22.053Z,6.17
2017-04-16T10:15:20.307Z,4.55
2017-04-16T10:16:18.547Z,5.13
2017-04-16T10:17:16.808Z,4.75
2017-04-16T10:18:15.106Z,6.25
2017-04-16T10:19:13.333Z,10.15
2017-04-16T10:20:11.616Z,5.22
2017-04-16T10:21:09.908Z,4.68
2017-04-16T10:22:08.161Z,6.33
2017-04-16T10:23:06.638Z,7.52
2017-04-16T10:24:04.873Z,4.48
2017-04-16T10:25:03.430Z,6.37
2017-04-16T10:26:01.689Z,6.38
2017-04-16T10:26:59.949Z,4.28
2017-04-16T10:27:58.214Z,4.50
2017-04-16T10:28:57.233Z,4.30
2017-04-16T10:29:55.531Z,6.83
2017-04-16T10:30:53.801Z,6.28
2017-04-16T10:31:52.902Z,5.37
2017-04-16T10:32:53.131Z,3.73
2017-04-16T10:33:51.621Z,4.25
2017-04-16T10:34:49.868Z,4.25
2017-04-16T10:35:48.129Z,4.17
2017-04-16T10:36:46.380Z,7.53
2017-04-16T10:37:44.645Z,6.88
2017-04-16T10:38:42.969Z,4.37
2017-04-16T10:39:41.392Z,9.93
2017-04-16T10:40:39.665Z,3.98
2017-04-16T10:41:37.952Z,6.85
2017-04-16T10:42:36.199Z,3.73
2017-04-16T10:43:34.617Z,5.52
2017-04-16T10:44:33.346Z,5.58
2017-04-16T10:45:31.696Z,9.37
2017-04-16T10:46:29.996Z,5.28
2017-04-16T10:47:29.025Z,5.07
2017-04-16T10:48:27.297Z,5.60
2017-04-16T10:49:25.583Z,5.48
2017-04-16T10:50:23.869Z,6.30
2017-04-16T10:51:22.125Z,7.03
2017-04-16T10:52:21.054Z,5.53
2017-04-16T10:53:19.343Z,6.27
2017-04-16T10:54:17.809Z,7.53
2017-04-16T10:55:16.108Z,5.37
2017-04-16T10:56:14.361Z,8.42
2017-04-16T10:57:12.628Z,7.08
2017-04-16T10:58:10.901Z,8.28
2017-04-16T10:59:09.194Z,7.90
2017-04-16T11:00:07.497Z,7.05
2017-04-16T11:01:05.802Z,5.88
2017-04-16T11:02:04.071Z,4.95
2017-04-16T11:03:02.358Z,7.52
2017-04-16T11:04:00.608Z,4.80
2017-04-16T11:04:58.833Z,5.28
2017-04-16T11:05:57.081Z,5.72
2017-04-16T11:06:55.300Z,5.17
2017-04-16T11:07:53.545Z,5.83
2017-04-16T11:08:52.513Z,8.00
2017-04-16T11:09:50.806Z,8.53
2017-04-16T11:10:49.801Z,6.55
2017-04-16T11:11:48.047Z,7.93
2017-04-16T11:12:46.262Z,6.08
2017-04-16T11:13:44.499Z,10.60
2017-04-16T11:14:42.753Z,5.88
2017-04-16T11:15:41.035Z,6.43
2017-04-16T11:16:39.277Z,8.02
2017-04-16T11:17:37.633Z,6.85
2017-04-16T11:18:35.893Z,5.18
2017-04-16T11:19:34.829Z,6.83
2017-04-16T11:20:33.117Z,7.23
2017-04-16T11:21:31.396Z,6.22
2017-04-16T11:22:29.623Z,5.40
2017-04-16T11:23:27.850Z,5.35
2017-04-16T11:24:26.872Z,6.90
2017-04-16T11:25:25.141Z,6.60
2017-04-16T11:26:23.373Z,7.72
2017-04-16T11:27:21.693Z,6.42
2017-04-16T11:28:19.973Z,6.93
2017-04-16T11:29:18.238Z,6.38
2017-04-16T11:30:16.469Z,7.95
2017-04-16T11:31:14.733Z,6.52
2017-04-16T11:32:12.982Z,7.73
2017-04-16T11:33:11.250Z,6.87
2017-04-16T11:34:09.501Z,8.40
2017-04-16T11:35:07.789Z,8.13
2017-04-16T11:36:06.057Z,7.73
2017-04-16T11:37:04.302Z,6.75
2017-04-16T11:38:02.654Z,6.50
2017-04-16T11:39:00.940Z,8.70
2017-04-16T11:39:59.198Z,10.57
2017-04-16T11:40:57.453Z,10.27
2017-04-16T11:41:55.712Z,8.70
2017-04-16T11:42:54.002Z,8.88
2017-04-16T11:43:52.246Z,9.32
2017-04-16T11:44:50.537Z,7.52
2017-04-16T11:45:48.793Z,7.55
2017-04-16T11:46:47.065Z,5.88
2017-04-16T11:47:45.325Z,10.63
2017-04-16T11:48:43.685Z,10.77
2017-04-16T11:49:41.951Z,6.27
2017-04-16T11:50:40.241Z,8.97
2017-04-16T11:51:39.265Z,6.97
2017-04-16T11:52:37.681Z,5.87
2017-04-16T11:53:36.054Z,6.98
2017-04-16T11:54:34.357Z,6.08
2017-04-16T11:55:32.602Z,8.77
2017-04-16T11:56:30.871Z,9.28
2017-04-16T11:57:29.138Z,6.07
2017-04-16T11:58:27.417Z,12.28
2017-04-16T11:59:25.630Z,10.18
2017-04-16T12:00:23.928Z,8.78
2017-04-16T12:01:22.568Z,6.93
2017-04-16T12:02:21.616Z,7.53
2017-04-16T12:03:21.655Z,8.73
2017-04-16T12:04:19.910Z,6.55
2017-04-16T12:05:18.193Z,6.55
2017-04-16T12:06:16.469Z,6.12
2017-04-16T12:07:14.751Z,6.13
2017-04-16T12:08:14.009Z,6.25
2017-04-16T12:09:12.329Z,7.38
2017-04-16T12:10:10.654Z,6.00
2017-04-16T12:11:09.649Z,10.17
2017-04-16T12:12:07.939Z,6.70
2017-04-16T12:13:06.301Z,5.92
2017-04-16T12:14:04.595Z,9.18
2017-04-16T12:15:02.913Z,7.47
2017-04-16T12:16:01.178Z,7.70
2017-04-16T12:16:59.468Z,7.37
2017-04-16T12:17:57.796Z,7.12
2017-04-16T12:18:56.086Z,5.45
2017-04-16T12:19:55.211Z,9.42
2017-04-16T12:20:53.490Z,7.63
2017-04-16T12:21:52.524Z,8.12
2017-04-16T12:22:50.790Z,7.97
2017-04-16T12:23:49.198Z,5.47
2017-04-16T12:24:48.205Z,6.90
2017-04-16T12:25:46.504Z,7.20
2017-04-16T12:26:44.793Z,8.45
2017-04-16T12:27:43.070Z,7.65
2017-04-16T12:28:41.331Z,6.93
2017-04-16T12:29:39.605Z,9.52
2017-04-16T12:30:37.853Z,6.12
2017-04-16T12:31:36.239Z,9.20
2017-04-16T12:32:34.863Z,5.87
2017-04-16T12:33:33.230Z,7.10
2017-04-16T12:34:31.524Z,10.58
2017-04-16T12:35:29.846Z,9.18
2017-04-16T12:36:28.089Z,8.87
2017-04-16T12:37:26.390Z,7.13
2017-04-16T12:38:24.690Z,9.83
2017-04-16T12:39:22.954Z,9.27
2017-04-16T12:40:21.253Z,5.80
2017-04-16T12:41:19.569Z,7.48
2017-04-16T12:42:17.846Z,7.13
2017-04-16T12:43:16.163Z,8.33
2017-04-16T12:44:15.195Z,7.60
2017-04-16T12:45:13.478Z,9.30
2017-04-16T12:46:11.721Z,6.98
2017-04-16T12:47:09.963Z,13.12